Flight Track Log - Related Links

Times and Time Zones

All times are in EDT time to prevent confusion due to time zone crossing. See the UAL3818 flight status page for this flight to view local times or setup timezone preferences in your user account.

Time Position Orientation Groundspeed Altitude Reporting Facility
EDT Latitude Longitude Course Direction KTS MPH feet Rate Location/Type
Sat 06:26:43 AM 40.7500 -74.1167 270° West 204 235 3,200  Level New York TRACON
Sat 06:27:44 AM 40.7500 -74.2000 270° West 242 278 5,200 2,154 Climbing New York TRACON
Sat 06:28:00 AM 40.6833 -74.4967 270° West  Level FlightAware Approximate
Sat 06:29:00 AM 40.6834 -74.6068 270° West  Level FlightAware Approximate
Sat 06:29:19 AM 40.7600 -74.3325 276° West 250 288 8,800  Level New York Center
Sat 06:30:00 AM 40.6833 -74.7168 270° West  Level FlightAware Approximate
Sat 06:30:16 AM 40.7717 -74.4264 279° West 262 302 10,700  Level New York Center
Sat 06:31:00 AM 40.6834 -74.8268 270° West  Level FlightAware Approximate
Sat 06:31:18 AM 40.7575 -74.5461 261° West 309 356 11,600  Level New York Center
Sat 06:32:00 AM 40.6833 -74.9368 270° West  Level FlightAware Approximate
Sat 06:32:16 AM 40.7411 -74.6631 260° West 334 384 13,200  Level New York Center
Sat 06:33:16 AM 40.7267 -74.7881 261° West 340 391 14,800 1,339 Climbing New York Center
Sat 06:34:17 AM 40.7081 -74.8994 258° West 352 405 15,900 885 Climbing New York Center
Sat 06:35:18 AM 40.6642 -75.0225 245° Southwest 358 412 16,600 885 Climbing New York Center
Sat 06:36:19 AM 40.6094 -75.1558 242° Southwest 384 442 17,700 857 Climbing New York Center
Sat 06:37:17 AM 40.5567 -75.2781 240° Southwest 384 442 18,300 763 Climbing New York Center
Sat 06:38:17 AM 40.5108 -75.3869 241° Southwest 389 448 19,200 843 Climbing New York Center
Sat 06:39:18 AM 40.4581 -75.5117 241° Southwest 383 441 20,000 397 Climbing New York Center
Sat 06:40:18 AM 40.4025 -75.6442 241° Southwest 402 463 20,000  Level New York Center
Sat 06:41:17 AM 40.3472 -75.7736 241° Southwest 407 468 20,000  Level New York Center
Sat 06:42:17 AM 40.2897 -75.9003 239° Southwest 402 463 20,000  Level New York Center
Sat 06:43:18 AM 40.2342 -76.0267 240° Southwest 402 463 20,000  Level New York Center
Sat 06:44:18 AM 40.1714 -76.1686 240° Southwest 402 463 20,000 -610 Level New York Center
Sat 06:45:16 AM 40.1200 -76.2894 241° Southwest 402 463 18,800 -1,119 Descending New York Center
Sat 06:46:16 AM 40.0686 -76.4019 239° Southwest 402 463 17,800 -1,027 Descending New York Center
Sat 06:48:00 AM 39.9602 -76.5964 237° Southwest  Level FlightAware Approximate
Sat 06:48:58 AM 39.9000 -76.7500 237° Southwest 394 453 15,000  Level Potomac TRACON
Sat 06:49:52 AM 39.8667 -76.8500 247° West 388 447 14,400 -1,241 Descending Potomac TRACON
Sat 06:51:00 AM 39.8055 -76.9602 234° Southwest  Level FlightAware Approximate
Sat 06:51:52 AM 39.7500 -77.0833 234° Southwest 382 440 11,400  Level Potomac TRACON
Sat 06:52:52 AM 39.7000 -77.2000 241° Southwest 377 434 10,300 -778 Descending Potomac TRACON
Sat 06:53:40 AM 39.6333 -77.2667 218° Southwest 338 389 10,000 -111 Descending Potomac TRACON
Sat 06:54:40 AM 39.5667 -77.3000 201° Southwest 294 338 10,100 -579 Climbing Potomac TRACON
Sat 06:55:34 AM 39.4833 -77.3333 197° South 288 331 8,900 -1,632 Descending Potomac TRACON
Sat 06:56:34 AM 39.4167 -77.3667 201° Southwest 280 322 7,000 -1,750 Descending Potomac TRACON
Sat 06:57:34 AM 39.3500 -77.3833 191° South 263 303 5,400 -1,474 Descending Potomac TRACON
Sat 06:58:28 AM 39.2833 -77.4167 201° Southwest 246 283 4,200 -1,158 Descending Potomac TRACON
Sat 06:59:28 AM 39.2167 -77.4333 191° South 248 285 3,200 -600 Descending Potomac TRACON
Sat 07:00:28 AM 39.1500 -77.4333 180° South 234 269 3,000 -200 Descending Potomac TRACON

Login

Don't have an account? Register now (free) for customized features, flight alerts, and more!